Time;durP1;ratioP1;P1;durP2;ratioP2;P2;SDS_P1;SDS_P2;PMS_P1;PMS_P2;Temp;Humidity;BMP_temperature;BMP_pressure;BME280_temperature;BME280_humidity;BME280_pressure;Samples;Min_cycle;Max_cycle;Signal;HPM_P1;HPM_P2
2021/08/11 00:00:03;;;;;;;9.25;5.65;;;;;;;17.03;76.59;100161.03;4994923;28;20128;-63
2021/08/11 00:02:46;;;;;;;;;;;;;;;17.01;76.61;100161.91;4980143;28;20116;-63
2021/08/11 00:05:33;;;;;;;8.55;6.10;;;;;;;17.00;76.67;100161.06;4994774;28;19925;-64
2021/08/11 00:08:19;;;;;;;7.53;5.65;;;;;;;16.99;76.53;100167.16;4980348;28;20154;-63
2021/08/11 00:11:09;;;;;;;9.57;5.20;;;;;;;16.98;76.75;100160.19;4994980;28;20402;-63
2021/08/11 00:13:53;;;;;;;10.00;4.68;;;;;;;16.99;76.49;100159.31;4980722;28;20501;-63
2021/08/11 00:16:37;;;;;;;11.30;4.75;;;;;;;16.98;76.65;100157.56;4994623;28;20053;-64
2021/08/11 00:19:23;;;;;;;8.70;5.25;;;;;;;16.97;76.56;100163.69;4979656;28;20118;-65
2021/08/11 00:22:10;;;;;;;8.27;5.18;;;;;;;16.98;76.58;100170.66;4994843;28;20145;-63
2021/08/11 00:24:54;;;;;;;7.60;4.80;;;;;;;16.97;76.74;100163.69;4979507;28;20137;-64
2021/08/11 00:27:38;;;;;;;11.88;5.43;;;;;;;16.97;76.74;100161.06;4994283;28;20049;-63
2021/08/11 00:30:25;;;;;;;6.72;4.82;;;;;;;16.98;76.61;100159.31;4994685;28;20057;-64
2021/08/11 00:33:12;;;;;;;9.63;5.65;;;;;;;16.97;76.69;100157.59;4979833;28;20096;-64
2021/08/11 00:35:55;;;;;;;8.40;5.57;;;;;;;16.96;76.71;100167.19;4994652;28;20130;-63
2021/08/11 00:38:39;;;;;;;11.77;5.68;;;;;;;16.95;76.48;100156.75;4994664;28;20592;-64
2021/08/11 00:41:26;;;;;;;8.40;4.95;;;;;;;16.96;76.77;100151.47;4979682;28;20050;-63
2021/08/11 00:44:16;;;;;;;9.13;5.38;;;;;;;16.95;76.77;100149.75;4979415;28;20112;-63
2021/08/11 00:47:05;;;;;;;7.45;4.90;;;;;;;16.96;76.54;100159.34;4980143;28;20053;-63
2021/08/11 00:49:52;;;;;;;8.63;4.75;;;;;;;16.96;76.62;100159.34;4979546;28;20053;-63
2021/08/11 00:52:36;;;;;;;7.55;5.07;;;;;;;16.96;76.58;100161.09;4993982;28;20514;-63
2021/08/11 00:55:23;;;;;;;9.23;5.28;;;;;;;16.96;76.80;100158.47;4980154;28;20073;-63
2021/08/11 00:58:14;;;;;;;9.02;5.45;;;;;;;16.95;76.73;100160.22;4979379;28;20081;-64
2021/08/11 01:01:00;;;;;;;9.48;5.65;;;;;;;16.95;76.65;100157.59;4993809;28;20056;-63
2021/08/11 01:03:47;;;;;;;5.80;4.43;;;;;;;16.96;76.76;100156.72;4995168;28;20065;-65
2021/08/11 01:06:31;;;;;;;9.68;4.95;;;;;;;16.96;76.71;100151.47;4979586;28;20053;-63
2021/08/11 01:09:15;;;;;;;;;;;;;;;16.95;76.75;100157.59;4979414;28;20121;-64
2021/08/11 01:12:02;;;;;;;6.13;5.03;;;;;;;16.94;76.89;100158.44;4994272;28;19924;-64
2021/08/11 01:14:47;;;;;;;6.22;4.47;;;;;;;16.94;76.71;100155.81;4979665;28;20049;-63
2021/08/11 01:17:30;;;;;;;6.47;4.95;;;;;;;16.94;76.88;100158.44;4993863;28;20077;-64
2021/08/11 01:20:14;;;;;;;6.65;5.15;;;;;;;16.93;76.81;100154.09;4993940;28;20053;-63
2021/08/11 01:23:03;;;;;;;;;;;;;;;16.93;76.65;100155.84;4979693;28;20524;-63
2021/08/11 01:25:53;;;;;;;10.18;5.63;;;;;;;16.92;76.77;100154.13;4993954;28;19964;-64
2021/08/11 01:28:55;;;;;;;7.28;4.85;;;;;;;16.92;76.94;100160.19;4979930;28;20567;-64
2021/08/11 01:31:52;;;;;;;7.93;5.00;;;;;;;16.92;76.85;100162.81;4979240;28;20057;-64
2021/08/11 01:34:42;;;;;;;6.65;4.38;;;;;;;16.93;76.61;100161.09;4993628;28;20081;-64
2021/08/11 01:37:33;;;;;;;10.52;5.03;;;;;;;16.92;76.61;100154.97;4979301;28;20469;-64
2021/08/11 01:40:25;;;;;;;9.38;5.10;;;;;;;16.91;77.00;100153.22;4978877;28;20097;-64
2021/08/11 01:43:15;;;;;;;16.65;5.90;;;;;;;16.90;76.86;100162.84;4994030;28;20061;-64
2021/08/11 01:46:00;;;;;;;14.52;5.32;;;;;;;16.90;76.96;100162.84;4979372;28;20054;-64
2021/08/11 01:48:48;;;;;;;10.35;5.43;;;;;;;16.89;76.77;100163.72;4978978;28;20077;-64
2021/08/11 01:51:35;;;;;;;13.38;5.53;;;;;;;16.90;76.55;100157.59;4993580;28;20048;-64
2021/08/11 01:54:24;;;;;;;8.75;5.20;;;;;;;16.90;76.75;100157.59;4982233;28;20100;-64
2021/08/11 01:57:10;;;;;;;7.90;4.72;;;;;;;16.89;76.84;100155.03;4997445;28;20085;-64
2021/08/11 01:59:58;;;;;;;9.23;5.18;;;;;;;16.89;76.70;100157.63;4997456;28;20053;-63
2021/08/11 02:02:45;;;;;;;7.72;4.55;;;;;;;16.88;76.77;100156.75;4982583;28;20069;-64
2021/08/11 02:05:30;;;;;;;9.70;5.22;;;;;;;16.88;76.99;100159.38;4996934;28;20076;-64
2021/08/11 02:08:15;;;;;;;11.20;5.50;;;;;;;16.86;76.90;100152.41;4982730;28;20061;-63
2021/08/11 02:11:01;;;;;;;11.52;5.40;;;;;;;16.86;76.83;100157.66;4982828;28;20085;-63
2021/08/11 02:13:48;;;;;;;10.57;5.45;;;;;;;16.88;76.72;100155.91;4982665;28;20065;-63
2021/08/11 02:16:37;;;;;;;8.38;4.75;;;;;;;16.87;76.86;100151.53;4996928;28;20049;-63
2021/08/11 02:19:24;;;;;;;9.27;5.57;;;;;;;16.86;76.86;100144.56;4996872;28;20096;-63
2021/08/11 02:22:08;;;;;;;8.63;4.70;;;;;;;16.86;77.02;100152.41;4982487;28;20513;-64
2021/08/11 02:24:55;;;;;;;8.15;4.63;;;;;;;16.84;76.60;100152.41;4996994;28;20077;-64
2021/08/11 02:27:56;;;;;;;9.25;5.65;;;;;;;16.85;76.77;100158.53;4997091;28;20045;-63
2021/08/11 02:30:58;;;;;;;6.80;5.25;;;;;;;16.83;76.84;100158.53;4982233;28;20054;-63
2021/08/11 02:33:49;;;;;;;15.00;4.97;;;;;;;16.83;76.76;100155.06;4996604;28;20073;-63
2021/08/11 02:36:40;;;;;;;11.45;5.75;;;;;;;16.82;76.83;100155.94;4996723;28;20132;-64
2021/08/11 02:39:39;;;;;;;6.68;4.97;;;;;;;16.82;76.73;100153.31;4996353;28;20045;-64
2021/08/11 02:42:33;;;;;;;7.95;5.50;;;;;;;16.81;76.72;100159.44;4982302;28;20494;-62
2021/08/11 02:45:18;;;;;;;7.50;5.28;;;;;;;16.80;76.71;100155.97;4996318;28;20045;-63
2021/08/11 02:48:02;;;;;;;8.13;5.45;;;;;;;16.78;76.62;100152.47;4996097;28;20048;-63
2021/08/11 02:50:50;;;;;;;;;;;;;;;16.78;76.94;100151.59;4996879;28;20069;-63
2021/08/11 02:53:37;;;;;;;10.82;5.93;;;;;;;16.77;77.07;100149.84;4996806;28;19964;-64
2021/08/11 02:56:21;;;;;;;9.00;5.05;;;;;;;16.77;76.91;100149.84;4995945;28;20121;-63
2021/08/11 02:59:10;;;;;;;12.68;5.57;;;;;;;16.77;76.84;100150.75;4981803;28;20108;-64
2021/08/11 03:01:59;;;;;;;9.73;5.22;;;;;;;16.77;76.75;100153.34;4996225;28;20061;-64
2021/08/11 03:04:46;;;;;;;7.72;5.20;;;;;;;16.78;76.98;100148.97;4980878;28;20058;-63
2021/08/11 03:07:31;;;;;;;9.90;5.28;;;;;;;16.77;76.96;100152.47;4981565;28;20568;-64
2021/08/11 03:10:15;;;;;;;10.02;5.45;;;;;;;16.78;76.97;100154.22;4981830;28;20465;-65
2021/08/11 03:13:02;;;;;;;8.68;6.10;;;;;;;16.77;76.85;100152.47;4995618;28;20049;-63
2021/08/11 03:15:51;;;;;;;10.07;6.25;;;;;;;16.77;76.92;100150.75;4981451;28;20049;-64
2021/08/11 03:18:38;;;;;;;8.48;5.18;;;;;;;16.80;76.96;100144.59;4996254;28;20053;-63
2021/08/11 03:21:24;;;;;;;10.27;5.70;;;;;;;16.78;76.85;100154.22;4995923;28;20073;-64
2021/08/11 03:24:13;;;;;;;9.15;5.80;;;;;;;16.79;76.74;100167.31;4995844;28;20568;-63
2021/08/11 03:27:03;;;;;;;7.82;5.75;;;;;;;16.78;77.00;100160.34;4981397;28;20461;-63
2021/08/11 03:29:50;;;;;;;9.50;6.53;;;;;;;16.79;76.88;100166.41;4980501;28;20097;-63
2021/08/11 03:32:34;;;;;;;8.20;5.50;;;;;;;16.79;77.27;100161.19;4995465;28;20084;-63
2021/08/11 03:35:19;;;;;;;17.20;6.97;;;;;;;16.79;77.01;100164.69;4995897;28;20057;-63
2021/08/11 03:38:08;;;;;;;9.57;5.80;;;;;;;16.79;77.12;100163.81;4980775;28;20045;-64
2021/08/11 03:40:55;;;;;;;8.55;6.38;;;;;;;16.79;76.94;100167.31;4995463;28;20053;-63
2021/08/11 03:43:39;;;;;;;10.45;6.32;;;;;;;16.78;76.88;100165.56;4995317;28;20122;-63
2021/08/11 03:46:25;;;;;;;7.85;5.47;;;;;;;16.79;76.87;100169.03;4994958;28;20092;-64
2021/08/11 03:49:12;;;;;;;14.75;6.30;;;;;;;16.79;77.03;100174.28;4980406;28;20126;-64
2021/08/11 03:51:59;;;;;;;10.38;6.60;;;;;;;16.78;76.91;100172.53;4995319;28;20422;-64
2021/08/11 03:54:45;;;;;;;9.90;7.03;;;;;;;16.77;76.98;100163.81;4980913;28;20513;-63
2021/08/11 03:57:29;;;;;;;8.38;6.88;;;;;;;16.78;77.12;100167.28;4980651;28;20521;-65
2021/08/11 04:00:15;;;;;;;15.32;7.30;;;;;;;16.78;77.05;100173.41;4995008;28;20096;-64
2021/08/11 04:03:00;;;;;;;13.85;6.70;;;;;;;16.78;76.93;100173.41;4994842;28;20057;-63
2021/08/11 04:05:43;;;;;;;8.75;6.70;;;;;;;16.77;77.39;100181.25;4980393;28;20421;-63
2021/08/11 04:08:27;;;;;;;10.95;6.45;;;;;;;16.76;76.92;100172.56;4995096;28;20045;-63
2021/08/11 04:11:11;;;;;;;11.60;6.57;;;;;;;16.75;77.00;100174.28;4980154;28;20049;-63
2021/08/11 04:13:58;;;;;;;15.45;6.32;;;;;;;16.75;77.06;100165.59;4994797;28;20080;-63
2021/08/11 04:16:42;;;;;;;8.43;6.20;;;;;;;16.74;76.95;100169.94;4994668;28;20049;-64
2021/08/11 04:19:26;;;;;;;10.07;6.80;;;;;;;16.74;77.16;100171.69;4994464;28;20155;-64
2021/08/11 04:22:10;;;;;;;15.75;7.00;;;;;;;16.74;77.03;100175.16;4995302;28;20065;-63
2021/08/11 04:24:54;;;;;;;15.70;7.00;;;;;;;16.73;77.06;100176.06;4994686;28;20080;-63
2021/08/11 04:27:41;;;;;;;10.65;6.43;;;;;;;16.73;76.99;100181.31;4979884;28;20073;-64
2021/08/11 04:30:27;;;;;;;7.60;5.22;;;;;;;16.73;77.04;100185.66;4980211;28;20088;-64
2021/08/11 04:33:14;;;;;;;10.63;6.28;;;;;;;16.72;76.96;100178.69;4994781;28;20547;-63
2021/08/11 04:36:04;;;;;;;10.27;6.40;;;;;;;16.70;77.11;100183.94;4980253;28;20052;-63
2021/08/11 04:38:51;;;;;;;12.48;6.18;;;;;;;16.70;77.27;100185.66;4979971;28;20045;-63
2021/08/11 04:41:35;;;;;;;7.45;5.35;;;;;;;16.70;77.06;100186.56;4994816;28;20057;-63
2021/08/11 04:44:19;;;;;;;8.75;5.55;;;;;;;16.70;77.25;100190.91;4994801;28;20104;-63
2021/08/11 04:47:03;;;;;;;8.30;6.43;;;;;;;16.69;76.92;100195.28;4994184;28;20053;-63
2021/08/11 04:49:50;;;;;;;10.02;6.32;;;;;;;16.68;77.42;100198.78;4979821;28;20057;-64
2021/08/11 04:52:37;;;;;;;10.23;6.28;;;;;;;16.69;77.04;100199.63;4994589;28;20277;-63
2021/08/11 04:55:24;;;;;;;10.68;6.05;;;;;;;16.68;77.54;100203.13;4994044;28;20092;-64
2021/08/11 04:58:08;;;;;;;13.13;7.07;;;;;;;16.66;77.10;100200.53;4994150;28;20051;-64
2021/08/11 05:00:54;;;;;;;9.80;6.70;;;;;;;16.68;77.17;100203.13;4994038;28;20564;-64
2021/08/11 05:03:38;;;;;;;16.42;7.50;;;;;;;16.67;77.28;100204.88;4979066;28;20061;-64
2021/08/11 05:06:22;;;;;;;12.45;7.80;;;;;;;16.66;77.16;100204.91;4979677;28;20088;-63
2021/08/11 05:09:06;;;;;;;11.35;7.95;;;;;;;16.65;77.13;100209.25;4993963;28;20555;-64
2021/08/11 05:11:49;;;;;;;11.18;7.82;;;;;;;16.64;77.00;100201.44;4979330;28;20085;-64
2021/08/11 05:14:34;;;;;;;12.90;7.95;;;;;;;16.63;77.23;100203.16;4993919;28;20170;-63
2021/08/11 05:17:21;;;;;;;11.27;7.97;;;;;;;16.63;76.97;100210.16;4979232;28;20049;-63
2021/08/11 05:20:06;;;;;;;13.57;8.98;;;;;;;16.61;77.17;100212.75;4979345;28;20057;-63
2021/08/11 05:22:52;;;;;;;13.73;8.00;;;;;;;16.61;77.16;100210.16;4979527;28;20100;-64
2021/08/11 05:25:37;;;;;;;15.88;8.43;;;;;;;16.62;77.04;100214.50;4979509;28;20048;-63
2021/08/11 05:28:21;;;;;;;13.88;9.00;;;;;;;16.61;76.98;100218.00;4997535;28;20064;-64
2021/08/11 05:31:05;;;;;;;14.20;9.10;;;;;;;16.60;76.86;100221.50;4998227;28;20108;-63
2021/08/11 05:33:51;;;;;;;11.55;8.52;;;;;;;16.60;77.16;100218.88;4983295;28;20057;-64
2021/08/11 05:36:38;;;;;;;14.35;8.88;;;;;;;16.59;77.23;100223.25;4997852;28;20130;-63
2021/08/11 05:39:27;;;;;;;17.35;9.40;;;;;;;16.58;77.16;100220.66;4997279;28;20050;-64
2021/08/11 05:42:14;;;;;;;12.63;8.75;;;;;;;16.59;77.05;100222.38;4983345;28;20170;-64
2021/08/11 05:44:58;;;;;;;18.33;9.60;;;;;;;16.57;77.10;100225.00;4983016;28;20093;-63
2021/08/11 05:47:45;;;;;;;19.40;10.20;;;;;;;16.58;77.14;100225.88;4983201;28;20469;-63
2021/08/11 05:50:29;;;;;;;17.52;9.63;;;;;;;16.58;77.24;100224.13;4997513;28;20065;-64
2021/08/11 05:53:12;;;;;;;15.02;9.18;;;;;;;16.58;77.09;100221.50;4997361;28;20489;-64
2021/08/11 05:55:59;;;;;;;16.83;10.02;;;;;;;16.57;77.19;100230.25;4997376;28;20054;-64
2021/08/11 05:58:43;;;;;;;16.02;9.80;;;;;;;16.58;77.09;100238.97;4997351;28;20049;-63
2021/08/11 06:01:27;;;;;;;15.65;9.65;;;;;;;16.58;77.05;100238.97;4982523;28;20046;-63
2021/08/11 06:04:13;;;;;;;18.00;9.55;;;;;;;16.58;77.25;100244.22;4997049;28;20525;-64
2021/08/11 06:07:00;;;;;;;18.42;9.13;;;;;;;16.59;76.90;100243.28;4997514;28;20045;-65
2021/08/11 06:09:47;;;;;;;19.67;8.98;;;;;;;16.61;77.22;100246.78;4982461;28;20517;-64
2021/08/11 06:12:36;;;;;;;16.25;8.85;;;;;;;16.62;77.23;100248.53;4997149;28;20041;-64
2021/08/11 06:15:21;;;;;;;12.18;8.23;;;;;;;16.62;77.11;100248.53;4997413;28;20073;-63
2021/08/11 06:18:05;;;;;;;13.45;8.68;;;;;;;16.64;77.19;100252.00;4997177;28;20061;-64
2021/08/11 06:20:52;;;;;;;12.20;9.82;;;;;;;16.63;77.41;100247.66;4996756;28;20061;-65
2021/08/11 06:23:44;;;;;;;13.27;8.73;;;;;;;16.65;77.33;100255.50;4982479;28;20081;-63
2021/08/11 06:26:31;;;;;;;14.35;8.77;;;;;;;16.65;77.27;100248.50;4982685;28;20445;-64
2021/08/11 06:29:18;;;;;;;13.18;8.73;;;;;;;16.66;77.34;100252.00;4982480;28;20564;-64
2021/08/11 06:32:03;;;;;;;13.45;9.38;;;;;;;16.67;77.42;100246.75;4982322;28;20402;-64
2021/08/11 06:34:50;;;;;;;14.45;9.15;;;;;;;16.67;77.29;100246.75;4996636;28;20408;-64
2021/08/11 06:37:50;;;;;;;14.27;9.80;;;;;;;16.67;77.55;100259.84;4981991;28;20049;-63
2021/08/11 06:40:40;;;;;;;16.05;9.73;;;;;;;16.68;77.29;100260.69;4996463;28;20053;-65
2021/08/11 06:43:30;;;;;;;14.68;10.73;;;;;;;16.68;77.47;100272.03;4981924;28;20085;-63
2021/08/11 06:46:17;;;;;;;15.02;9.85;;;;;;;16.70;77.50;100280.75;4996627;28;20052;-65
2021/08/11 06:49:01;;;;;;;16.92;10.55;;;;;;;16.70;77.45;100272.91;4996552;28;20481;-63
2021/08/11 06:51:53;;;;;;;19.42;12.00;;;;;;;16.71;77.48;100274.66;4996285;28;20469;-63
2021/08/11 06:54:37;;;;;;;14.88;12.23;;;;;;;16.71;77.57;100279.88;4995971;28;20049;-63
2021/08/11 06:57:24;;;;;;;16.92;11.80;;;;;;;16.72;77.62;100276.41;4996767;28;20049;-63
2021/08/11 07:00:09;;;;;;;16.73;13.95;;;;;;;16.72;77.59;100281.63;4995927;28;20046;-63
2021/08/11 07:02:59;;;;;;;23.35;14.10;;;;;;;16.73;77.52;100280.75;4981338;28;20418;-63
2021/08/11 07:05:43;;;;;;;18.40;13.80;;;;;;;16.74;77.86;100282.47;4981867;28;20101;-64
2021/08/11 07:08:28;;;;;;;19.52;14.02;;;;;;;16.74;77.58;100281.59;4995885;28;20049;-63
2021/08/11 07:11:12;;;;;;;20.35;15.05;;;;;;;16.74;77.73;100292.94;4995706;28;20049;-64
2021/08/11 07:14:01;;;;;;;20.92;14.25;;;;;;;16.75;77.74;100293.81;4996064;28;20521;-64
2021/08/11 07:16:48;;;;;;;20.42;15.45;;;;;;;16.75;77.82;100285.97;4981678;28;20085;-64
2021/08/11 07:19:32;;;;;;;24.13;14.80;;;;;;;16.76;77.76;100290.31;4980920;28;20427;-64
2021/08/11 07:22:15;;;;;;;20.42;14.27;;;;;;;16.75;77.71;100299.91;4996267;28;20061;-64
2021/08/11 07:25:05;;;;;;;21.13;14.18;;;;;;;16.75;77.73;100305.13;4995875;28;20097;-64
2021/08/11 07:27:52;;;;;;;23.13;14.70;;;;;;;16.76;77.87;100313.88;4981192;28;20556;-64
2021/08/11 07:30:37;;;;;;;22.30;16.55;;;;;;;16.77;77.84;100312.13;4981497;28;20609;-64
2021/08/11 07:33:24;;;;;;;21.02;16.08;;;;;;;16.76;77.92;100319.09;4995582;28;20057;-64
2021/08/11 07:36:08;;;;;;;27.58;18.50;;;;;;;16.75;77.75;100314.75;4980765;28;20097;-65
2021/08/11 07:38:54;;;;;;;24.67;16.98;;;;;;;16.74;77.93;100320.88;4995126;28;20064;-64
2021/08/11 07:41:40;;;;;;;23.98;17.40;;;;;;;16.73;77.94;100324.34;4995500;28;20068;-64
2021/08/11 07:44:27;;;;;;;24.45;17.88;;;;;;;16.74;77.92;100324.34;4995574;28;20130;-64
2021/08/11 07:47:11;;;;;;;28.60;19.88;;;;;;;16.73;77.89;100327.84;4980881;28;20138;-65
2021/08/11 07:49:55;;;;;;;27.00;16.50;;;;;;;16.72;77.82;100317.38;4994572;28;20057;-64
2021/08/11 07:52:43;;;;;;;28.88;18.35;;;;;;;16.71;78.08;100321.75;4995169;28;20057;-64
2021/08/11 07:55:30;;;;;;;27.25;16.55;;;;;;;16.71;78.00;100313.91;4980645;28;20072;-64
2021/08/11 07:58:21;;;;;;;24.30;17.52;;;;;;;16.71;77.96;100311.28;4995357;28;20413;-63
2021/08/11 08:01:07;;;;;;;26.85;17.58;;;;;;;16.70;78.11;100314.78;4980931;28;20077;-63
2021/08/11 08:03:51;;;;;;;22.42;16.77;;;;;;;16.70;78.00;100306.03;4995268;28;20524;-65
2021/08/11 08:06:39;;;;;;;27.52;19.48;;;;;;;16.71;77.98;100303.44;4980796;28;20122;-64
2021/08/11 08:09:25;;;;;;;27.88;19.25;;;;;;;16.70;77.92;100296.47;4980314;28;20085;-64
2021/08/11 08:12:11;;;;;;;29.15;21.20;;;;;;;16.71;78.04;100303.44;4995754;28;20072;-64
2021/08/11 08:14:55;;;;;;;29.63;19.70;;;;;;;16.72;77.93;100292.09;4980120;28;20057;-64
2021/08/11 08:17:45;;;;;;;28.60;20.55;;;;;;;16.71;77.86;100290.34;4995263;28;20076;-64
2021/08/11 08:20:33;;;;;;;26.95;20.55;;;;;;;16.72;78.00;100292.09;4980382;28;20052;-63
2021/08/11 08:23:20;;;;;;;33.00;20.55;;;;;;;16.73;78.01;100290.34;4980284;28;20128;-64
2021/08/11 08:26:11;;;;;;;28.35;20.77;;;;;;;16.74;78.09;100295.53;4980145;28;20053;-63
2021/08/11 08:28:55;;;;;;;28.02;20.55;;;;;;;16.74;78.19;100292.94;4994352;28;20096;-64
2021/08/11 08:31:41;;;;;;;30.98;21.08;;;;;;;16.75;77.92;100286.81;4994541;28;20105;-64
2021/08/11 08:34:29;;;;;;;25.83;19.73;;;;;;;16.77;78.04;100292.06;4980000;28;20054;-64
2021/08/11 08:37:24;;;;;;;23.48;17.40;;;;;;;16.79;77.92;100295.53;4979997;28;20473;-64
2021/08/11 08:40:12;;;;;;;23.92;17.90;;;;;;;16.80;77.99;100299.03;4979670;28;20049;-63
2021/08/11 08:42:58;;;;;;;24.65;18.50;;;;;;;16.81;77.88;100298.13;4980094;28;20057;-63
2021/08/11 08:45:44;;;;;;;25.98;18.02;;;;;;;16.82;78.09;100299.88;4980169;28;20081;-64
2021/08/11 08:48:35;;;;;;;23.77;18.95;;;;;;;16.82;77.89;100307.72;4994447;28;20101;-65
2021/08/11 08:51:22;;;;;;;26.33;19.73;;;;;;;16.82;78.08;100299.88;4994568;28;20053;-64
2021/08/11 08:54:06;;;;;;;27.52;18.23;;;;;;;16.84;77.96;100304.22;4979978;28;20061;-64
2021/08/11 08:56:50;;;;;;;;;;;;;;;16.83;77.90;100304.25;4994553;28;20101;-64
2021/08/11 08:59:42;;;;;;;25.02;19.02;;;;;;;16.83;77.98;100306.84;4993911;28;19968;-64
2021/08/11 09:02:32;;;;;;;23.90;17.63;;;;;;;16.86;77.97;100309.47;4993744;28;20089;-64
2021/08/11 09:05:16;;;;;;;23.10;17.77;;;;;;;16.87;78.27;100305.97;4994127;28;20421;-64
2021/08/11 09:08:05;;;;;;;26.27;18.67;;;;;;;16.86;77.77;100309.47;4994460;28;20053;-64
2021/08/11 09:10:53;;;;;;;22.60;18.23;;;;;;;16.88;77.66;100311.19;4979762;28;20406;-64
2021/08/11 09:13:37;;;;;;;24.50;18.90;;;;;;;16.90;77.68;100311.16;4979876;28;20085;-64
2021/08/11 09:16:20;;;;;;;22.55;17.17;;;;;;;16.90;77.75;100319.00;4979605;28;20084;-64
2021/08/11 09:19:04;;;;;;;24.25;16.98;;;;;;;16.92;77.69;100330.34;4979358;28;20109;-63
2021/08/11 09:22:00;;;;;;;21.48;16.88;;;;;;;16.94;77.64;100328.59;4979573;28;20506;-63
2021/08/11 09:25:08;;;;;;;21.17;16.52;;;;;;;16.94;77.78;100333.84;4994308;28;20050;-64
2021/08/11 09:27:55;;;;;;;23.73;16.13;;;;;;;16.96;77.58;100339.13;4979455;28;20077;-63
2021/08/11 09:30:42;;;;;;;22.70;17.17;;;;;;;16.97;77.57;100328.63;4979551;28;20061;-65
2021/08/11 09:33:32;;;;;;;25.73;16.80;;;;;;;16.99;77.56;100333.84;4979469;28;20049;-64
2021/08/11 09:36:22;;;;;;;22.30;16.02;;;;;;;17.01;77.46;100329.47;4979777;28;20467;-63
2021/08/11 09:39:06;;;;;;;25.40;16.63;;;;;;;17.01;77.63;100335.59;4979133;28;20449;-64
2021/08/11 09:41:58;;;;;;;21.45;16.42;;;;;;;17.02;77.52;100329.47;4994149;28;20578;-64
2021/08/11 09:45:00;;;;;;;20.35;14.35;;;;;;;17.03;77.55;100325.09;4993979;28;20136;-64
2021/08/11 09:47:58;;;;;;;21.20;14.85;;;;;;;17.03;77.38;100323.38;4979095;28;20049;-64
2021/08/11 09:50:48;;;;;;;20.23;16.00;;;;;;;17.05;77.85;100325.97;4979082;28;20487;-64
2021/08/11 09:53:37;;;;;;;20.52;15.20;;;;;;;17.07;77.60;100312.84;4993779;28;20181;-65
2021/08/11 09:56:33;;;;;;;22.25;17.23;;;;;;;17.09;77.63;100309.34;4993491;28;20050;-64
2021/08/11 09:59:18;;;;;;;18.77;15.38;;;;;;;17.11;77.38;100311.94;4979212;28;20077;-64
2021/08/11 10:02:16;;;;;;;19.13;15.38;;;;;;;17.11;77.38;100311.94;4993692;28;20178;-64
2021/08/11 10:05:02;;;;;;;18.42;15.25;;;;;;;17.13;77.69;100304.97;4978564;28;20045;-64
2021/08/11 10:07:53;;;;;;;19.05;14.15;;;;;;;17.15;77.52;100306.69;4979265;28;20124;-63
2021/08/11 10:10:48;;;;;;;18.17;15.27;;;;;;;17.17;77.29;100301.44;4979149;28;20076;-64
2021/08/11 10:13:40;;;;;;;21.65;15.43;;;;;;;17.18;77.71;100303.19;4979008;28;20049;-64
2021/08/11 10:16:29;;;;;;;19.48;15.80;;;;;;;17.22;77.30;100314.50;4997004;28;20045;-64
2021/08/11 10:19:14;;;;;;;18.55;14.43;;;;;;;17.23;77.36;100316.25;4997082;28;20073;-64
2021/08/11 10:22:21;;;;;;;17.90;13.00;;;;;;;17.24;77.19;100320.59;4982354;28;20557;-64
2021/08/11 10:25:06;;;;;;;19.02;14.02;;;;;;;17.25;77.31;100330.19;4982657;28;20053;-63
2021/08/11 10:27:53;;;;;;;19.20;14.00;;;;;;;17.26;77.35;100329.31;4982047;28;20053;-64
2021/08/11 10:30:38;;;;;;;18.60;14.38;;;;;;;17.28;77.35;100328.41;4982065;28;20085;-65
2021/08/11 10:33:22;;;;;;;15.05;12.35;;;;;;;17.29;77.13;100310.94;4982346;28;20085;-64
2021/08/11 10:36:09;;;;;;;;;;;;;;;17.29;77.20;100329.28;4982041;28;20093;-64
2021/08/11 10:38:56;;;;;;;15.13;12.10;;;;;;;17.28;77.16;100319.72;4996301;28;19924;-64
2021/08/11 10:41:40;;;;;;;15.38;12.02;;;;;;;17.31;77.35;100327.53;4982409;28;20096;-64
2021/08/11 10:44:25;;;;;;;;;;;;;;;17.31;77.08;100325.78;4982484;28;20045;-66
2021/08/11 10:47:11;;;;;;;15.27;10.85;;;;;;;17.32;77.16;100324.03;4996588;28;19937;-64
2021/08/11 10:49:59;;;;;;;11.77;10.35;;;;;;;17.33;77.15;100329.28;4982284;28;20410;-63
2021/08/11 10:53:07;;;;;;;12.95;9.90;;;;;;;17.34;77.04;100320.53;4981739;28;20053;-64
2021/08/11 10:55:53;;;;;;;14.68;11.05;;;;;;;17.37;77.22;100323.97;4981887;28;20053;-64
2021/08/11 10:58:44;;;;;;;15.20;9.57;;;;;;;17.38;76.91;100315.25;4981837;28;20386;-64
2021/08/11 11:01:35;;;;;;;11.23;8.80;;;;;;;17.39;77.12;100317.88;4981225;28;20461;-64
2021/08/11 11:04:39;;;;;;;9.27;7.20;;;;;;;17.42;76.97;100314.34;4981316;28;20076;-64
2021/08/11 11:07:23;;;;;;;13.02;7.70;;;;;;;17.42;77.01;100312.63;4981821;28;20053;-65
2021/08/11 11:10:27;;;;;;;11.25;7.50;;;;;;;17.44;76.77;100307.34;4996429;28;20418;-65
2021/08/11 11:13:29;;;;;;;11.93;6.93;;;;;;;17.45;76.95;100306.47;4996434;28;20096;-64
2021/08/11 11:16:13;;;;;;;9.43;6.63;;;;;;;17.46;76.82;100302.97;4981128;28;20049;-64
2021/08/11 11:19:07;;;;;;;10.38;6.63;;;;;;;17.47;76.96;100302.94;4996055;28;20045;-63
2021/08/11 11:21:51;;;;;;;11.20;5.95;;;;;;;17.48;76.74;100304.69;4981156;28;20096;-64
2021/08/11 11:24:49;;;;;;;12.93;6.25;;;;;;;17.50;76.54;100307.31;4981206;28;20053;-64
2021/08/11 11:27:43;;;;;;;8.02;5.82;;;;;;;17.49;76.55;100302.94;4995572;28;20520;-64
2021/08/11 11:30:38;;;;;;;7.88;5.40;;;;;;;17.49;76.68;100303.81;4980897;28;20057;-64
2021/08/11 11:33:28;;;;;;;7.03;6.03;;;;;;;17.50;76.60;100309.94;4995518;28;20178;-65
2021/08/11 11:36:23;;;;;;;8.55;5.00;;;;;;;17.48;76.66;100309.06;4980770;28;20149;-64
2021/08/11 11:39:14;;;;;;;7.13;5.28;;;;;;;17.48;76.72;100317.78;4980881;28;20089;-64
2021/08/11 11:42:16;;;;;;;7.50;5.00;;;;;;;17.48;76.63;100312.53;4981052;28;20053;-63
2021/08/11 11:45:09;;;;;;;10.95;5.63;;;;;;;17.50;76.46;100320.41;4980622;28;20049;-65
2021/08/11 11:47:53;;;;;;;7.93;5.63;;;;;;;17.50;76.48;100321.25;4981038;28;20085;-64
2021/08/11 11:50:42;;;;;;;7.80;5.53;;;;;;;17.50;76.22;100307.31;4980810;28;20053;-64
2021/08/11 11:53:30;;;;;;;6.72;5.30;;;;;;;17.50;76.26;100307.31;4980477;28;20057;-65
2021/08/11 11:56:16;;;;;;;6.20;5.07;;;;;;;17.54;76.51;100302.91;4980993;28;20062;-64
2021/08/11 11:59:07;;;;;;;7.50;5.07;;;;;;;17.55;76.52;100302.03;4980932;28;20082;-64
2021/08/11 12:01:54;;;;;;;6.05;4.63;;;;;;;17.55;76.34;100310.75;4980563;28;20065;-63
2021/08/11 12:04:42;;;;;;;9.05;5.05;;;;;;;17.57;76.38;100308.13;4980585;28;20073;-63
2021/08/11 12:07:27;;;;;;;6.65;4.63;;;;;;;17.59;76.08;100308.97;4980708;28;20065;-64
2021/08/11 12:10:31;;;;;;;8.90;4.85;;;;;;;17.60;76.15;100311.56;4980239;28;20081;-65
2021/08/11 12:13:16;;;;;;;6.85;5.03;;;;;;;17.60;76.31;100302.81;4994566;28;20076;-65
2021/08/11 12:16:00;;;;;;;6.25;4.72;;;;;;;17.60;76.21;100298.47;4995081;28;20077;-64
2021/08/11 12:18:47;;;;;;;7.57;5.32;;;;;;;17.63;76.33;100303.69;4994636;28;20049;-64
2021/08/11 12:21:34;;;;;;;7.78;5.55;;;;;;;17.64;76.30;100296.69;4980343;28;20155;-64
2021/08/11 12:24:27;;;;;;;8.10;5.55;;;;;;;17.64;76.43;100296.69;4980134;28;20049;-64
2021/08/11 12:27:11;;;;;;;9.77;5.68;;;;;;;17.67;75.92;100301.06;4980316;28;20202;-65
2021/08/11 12:30:16;;;;;;;;;;;;;;;17.69;76.17;100299.25;4980111;28;20048;-64
2021/08/11 12:33:04;;;;;;;7.50;5.53;;;;;;;17.68;76.14;100308.00;4979899;28;19951;-65
2021/08/11 12:35:52;;;;;;;5.45;4.53;;;;;;;17.70;76.00;100301.00;4994514;28;20053;-65
2021/08/11 12:38:38;;;;;;;10.38;5.15;;;;;;;17.70;76.18;100301.88;4979634;28;20057;-64
2021/08/11 12:41:24;;;;;;;7.50;5.18;;;;;;;17.73;75.81;100301.88;4979648;28;20469;-64
2021/08/11 12:44:17;;;;;;;7.18;5.10;;;;;;;17.75;75.99;100292.19;4980070;28;20092;-63
2021/08/11 12:47:12;;;;;;;8.00;5.18;;;;;;;17.78;76.02;100292.19;4979943;28;20137;-65
2021/08/11 12:49:59;;;;;;;;;;;;;;;17.79;75.97;100291.31;4979886;28;20105;-66
2021/08/11 12:52:54;;;;;;;8.93;5.00;;;;;;;17.78;76.12;100291.31;4979398;28;20001;-64